sensor_id;sensor_type;location;lat;lon;timestamp;pressure;altitude;pressure_sealevel;temperature;humidity
57232;BME280;43488;46.934;8.276;2023-11-19T00:02:07;96851.09;;;6.22;100.00
57232;BME280;43488;46.934;8.276;2023-11-19T00:04:38;96851.09;;;6.22;100.00
57232;BME280;43488;46.934;8.276;2023-11-19T00:07:08;96848.94;;;6.26;100.00
57232;BME280;43488;46.934;8.276;2023-11-19T00:09:38;96845.34;;;6.27;100.00
57232;BME280;43488;46.934;8.276;2023-11-19T00:12:07;96844.50;;;6.26;100.00
57232;BME280;43488;46.934;8.276;2023-11-19T00:14:34;96842.88;;;6.25;100.00
57232;BME280;43488;46.934;8.276;2023-11-19T00:17:02;96846.50;;;6.24;100.00
57232;BME280;43488;46.934;8.276;2023-11-19T00:19:31;96824.13;;;6.22;100.00
57232;BME280;43488;46.934;8.276;2023-11-19T00:21:58;96833.28;;;6.18;100.00
57232;BME280;43488;46.934;8.276;2023-11-19T00:24:30;96820.38;;;6.16;100.00
57232;BME280;43488;46.934;8.276;2023-11-19T00:26:57;96805.53;;;6.17;100.00
57232;BME280;43488;46.934;8.276;2023-11-19T00:29:24;96805.34;;;6.18;100.00
57232;BME280;43488;46.934;8.276;2023-11-19T00:31:52;96807.78;;;6.20;100.00
57232;BME280;43488;46.934;8.276;2023-11-19T00:34:20;96798.13;;;6.20;100.00
57232;BME280;43488;46.934;8.276;2023-11-19T00:36:50;96797.50;;;6.18;100.00
57232;BME280;43488;46.934;8.276;2023-11-19T00:39:17;96816.78;;;6.17;100.00
57232;BME280;43488;46.934;8.276;2023-11-19T00:41:45;96809.94;;;6.16;100.00
57232;BME280;43488;46.934;8.276;2023-11-19T00:44:13;96803.41;;;6.12;100.00
57232;BME280;43488;46.934;8.276;2023-11-19T00:46:40;96802.09;;;6.16;100.00
57232;BME280;43488;46.934;8.276;2023-11-19T00:49:08;96795.06;;;6.17;100.00
57232;BME280;43488;46.934;8.276;2023-11-19T00:51:35;96795.69;;;6.19;100.00
57232;BME280;43488;46.934;8.276;2023-11-19T00:54:02;96790.00;;;6.15;100.00
57232;BME280;43488;46.934;8.276;2023-11-19T00:56:29;96790.19;;;6.14;100.00
57232;BME280;43488;46.934;8.276;2023-11-19T00:58:57;96787.41;;;6.15;100.00
57232;BME280;43488;46.934;8.276;2023-11-19T01:01:24;96789.38;;;6.13;100.00
57232;BME280;43488;46.934;8.276;2023-11-19T01:03:52;96791.81;;;6.15;100.00
57232;BME280;43488;46.934;8.276;2023-11-19T01:06:30;96789.53;;;6.12;100.00
57232;BME280;43488;46.934;8.276;2023-11-19T01:08:57;96791.00;;;6.14;100.00
57232;BME280;43488;46.934;8.276;2023-11-19T01:11:25;96798.53;;;6.09;100.00
57232;BME280;43488;46.934;8.276;2023-11-19T01:13:53;96804.56;;;6.10;100.00
57232;BME280;43488;46.934;8.276;2023-11-19T01:16:20;96791.50;;;6.10;100.00
57232;BME280;43488;46.934;8.276;2023-11-19T01:18:48;96796.56;;;6.11;100.00
57232;BME280;43488;46.934;8.276;2023-11-19T01:21:16;96792.94;;;6.12;100.00
57232;BME280;43488;46.934;8.276;2023-11-19T01:23:44;96794.44;;;6.15;100.00
57232;BME280;43488;46.934;8.276;2023-11-19T01:26:12;96801.09;;;6.17;100.00
57232;BME280;43488;46.934;8.276;2023-11-19T01:28:40;96806.34;;;6.17;100.00
57232;BME280;43488;46.934;8.276;2023-11-19T01:31:12;96796.88;;;6.16;100.00
57232;BME280;43488;46.934;8.276;2023-11-19T01:33:39;96796.88;;;6.16;100.00
57232;BME280;43488;46.934;8.276;2023-11-19T01:36:09;96798.31;;;6.19;100.00
57232;BME280;43488;46.934;8.276;2023-11-19T01:38:36;96785.25;;;6.19;100.00
57232;BME280;43488;46.934;8.276;2023-11-19T01:41:04;96795.88;;;6.17;100.00
57232;BME280;43488;46.934;8.276;2023-11-19T01:43:40;96789.03;;;6.16;100.00
57232;BME280;43488;46.934;8.276;2023-11-19T01:46:08;96787.22;;;6.17;100.00
57232;BME280;43488;46.934;8.276;2023-11-19T01:48:47;96792.63;;;6.15;100.00
57232;BME280;43488;46.934;8.276;2023-11-19T01:51:14;96782.16;;;6.15;100.00
57232;BME280;43488;46.934;8.276;2023-11-19T01:53:44;96792.00;;;6.13;100.00
57232;BME280;43488;46.934;8.276;2023-11-19T01:56:14;96785.94;;;6.13;100.00
57232;BME280;43488;46.934;8.276;2023-11-19T01:58:44;96784.16;;;6.13;100.00
57232;BME280;43488;46.934;8.276;2023-11-19T02:01:13;96785.78;;;6.14;100.00
57232;BME280;43488;46.934;8.276;2023-11-19T02:03:42;96783.34;;;6.13;100.00
57232;BME280;43488;46.934;8.276;2023-11-19T02:06:09;96774.66;;;6.12;100.00
57232;BME280;43488;46.934;8.276;2023-11-19T02:08:37;96777.63;;;6.09;100.00
57232;BME280;43488;46.934;8.276;2023-11-19T02:11:06;96758.16;;;6.12;100.00
57232;BME280;43488;46.934;8.276;2023-11-19T02:13:37;96752.47;;;6.08;100.00
57232;BME280;43488;46.934;8.276;2023-11-19T02:16:05;96745.63;;;6.07;100.00
57232;BME280;43488;46.934;8.276;2023-11-19T02:18:32;96736.16;;;6.06;100.00
57232;BME280;43488;46.934;8.276;2023-11-19T02:21:00;96730.94;;;6.06;100.00
57232;BME280;43488;46.934;8.276;2023-11-19T02:23:28;96738.78;;;6.06;100.00
57232;BME280;43488;46.934;8.276;2023-11-19T02:26:33;96725.53;;;6.08;100.00
57232;BME280;43488;46.934;8.276;2023-11-19T02:29:04;96714.44;;;6.06;100.00
57232;BME280;43488;46.934;8.276;2023-11-19T02:31:31;96707.41;;;6.06;100.00
57232;BME280;43488;46.934;8.276;2023-11-19T02:33:59;96699.56;;;6.06;100.00
57232;BME280;43488;46.934;8.276;2023-11-19T02:36:29;96715.53;;;6.11;100.00
57232;BME280;43488;46.934;8.276;2023-11-19T02:38:56;96718.31;;;6.10;100.00
57232;BME280;43488;46.934;8.276;2023-11-19T02:41:23;96718.13;;;6.11;100.00
57232;BME280;43488;46.934;8.276;2023-11-19T02:43:51;96712.59;;;6.14;100.00
57232;BME280;43488;46.934;8.276;2023-11-19T02:46:18;96707.34;;;6.14;100.00
57232;BME280;43488;46.934;8.276;2023-11-19T02:48:46;96703.38;;;6.18;100.00
57232;BME280;43488;46.934;8.276;2023-11-19T02:51:13;96715.47;;;6.19;100.00
57232;BME280;43488;46.934;8.276;2023-11-19T02:53:42;96706.00;;;6.18;100.00
57232;BME280;43488;46.934;8.276;2023-11-19T02:56:11;96693.94;;;6.17;100.00
57232;BME280;43488;46.934;8.276;2023-11-19T02:58:46;96682.84;;;6.15;100.00
57232;BME280;43488;46.934;8.276;2023-11-19T03:01:22;96692.94;;;6.18;100.00
57232;BME280;43488;46.934;8.276;2023-11-19T03:04:01;96698.97;;;6.19;100.00
57232;BME280;43488;46.934;8.276;2023-11-19T03:06:29;96685.09;;;6.18;100.00
57232;BME280;43488;46.934;8.276;2023-11-19T03:08:58;96677.06;;;6.20;100.00
57232;BME280;43488;46.934;8.276;2023-11-19T03:11:25;96682.47;;;6.18;100.00
57232;BME280;43488;46.934;8.276;2023-11-19T03:13:52;96664.81;;;6.20;100.00
57232;BME280;43488;46.934;8.276;2023-11-19T03:16:20;96668.09;;;6.22;100.00
57232;BME280;43488;46.934;8.276;2023-11-19T03:18:49;96664.81;;;6.20;100.00
57232;BME280;43488;46.934;8.276;2023-11-19T03:21:17;96668.41;;;6.19;100.00
57232;BME280;43488;46.934;8.276;2023-11-19T03:23:44;96665.47;;;6.22;100.00
57232;BME280;43488;46.934;8.276;2023-11-19T03:26:11;96668.91;;;6.23;100.00
57232;BME280;43488;46.934;8.276;2023-11-19T03:28:40;96658.25;;;6.24;100.00
57232;BME280;43488;46.934;8.276;2023-11-19T03:31:08;96660.50;;;6.27;100.00
57232;BME280;43488;46.934;8.276;2023-11-19T03:33:36;96642.38;;;6.26;100.00
57232;BME280;43488;46.934;8.276;2023-11-19T03:36:05;96623.47;;;6.24;100.00
57232;BME280;43488;46.934;8.276;2023-11-19T03:38:33;96624.28;;;6.24;100.00
57232;BME280;43488;46.934;8.276;2023-11-19T03:41:01;96616.06;;;6.27;100.00
57232;BME280;43488;46.934;8.276;2023-11-19T03:43:31;96613.00;;;6.24;100.00
57232;BME280;43488;46.934;8.276;2023-11-19T03:45:59;96604.97;;;6.25;100.00
57232;BME280;43488;46.934;8.276;2023-11-19T03:48:26;96603.00;;;6.27;100.00
57232;BME280;43488;46.934;8.276;2023-11-19T03:50:54;96608.69;;;6.31;100.00
57232;BME280;43488;46.934;8.276;2023-11-19T03:53:21;96593.81;;;6.32;100.00
57232;BME280;43488;46.934;8.276;2023-11-19T03:55:50;96599.84;;;6.32;100.00
57232;BME280;43488;46.934;8.276;2023-11-19T03:58:19;96605.25;;;6.31;100.00
57232;BME280;43488;46.934;8.276;2023-11-19T04:00:46;96598.25;;;6.31;100.00
57232;BME280;43488;46.934;8.276;2023-11-19T04:03:14;96613.09;;;6.31;100.00
57232;BME280;43488;46.934;8.276;2023-11-19T04:05:41;96606.16;;;6.23;100.00
57232;BME280;43488;46.934;8.276;2023-11-19T04:08:08;96615.31;;;6.19;100.00
57232;BME280;43488;46.934;8.276;2023-11-19T04:10:36;96646.50;;;6.20;100.00
57232;BME280;43488;46.934;8.276;2023-11-19T04:13:05;96634.25;;;6.21;100.00
57232;BME280;43488;46.934;8.276;2023-11-19T04:15:33;96635.72;;;6.23;100.00
57232;BME280;43488;46.934;8.276;2023-11-19T04:18:00;96636.34;;;6.25;100.00
57232;BME280;43488;46.934;8.276;2023-11-19T04:20:28;96629.13;;;6.27;100.00
57232;BME280;43488;46.934;8.276;2023-11-19T04:22:55;96637.44;;;6.31;100.00
57232;BME280;43488;46.934;8.276;2023-11-19T04:25:23;96633.66;;;6.34;100.00
57232;BME280;43488;46.934;8.276;2023-11-19T04:27:53;96652.16;;;6.32;100.00
57232;BME280;43488;46.934;8.276;2023-11-19T04:30:20;96658.44;;;6.38;100.00
57232;BME280;43488;46.934;8.276;2023-11-19T04:32:48;96659.44;;;6.37;100.00
57232;BME280;43488;46.934;8.276;2023-11-19T04:35:15;96653.84;;;6.40;100.00
57232;BME280;43488;46.934;8.276;2023-11-19T04:37:43;96653.59;;;6.35;100.00
57232;BME280;43488;46.934;8.276;2023-11-19T04:40:10;96670.38;;;6.40;100.00
57232;BME280;43488;46.934;8.276;2023-11-19T04:42:39;96672.81;;;6.42;100.00
57232;BME280;43488;46.934;8.276;2023-11-19T04:45:10;96666.41;;;6.44;100.00
57232;BME280;43488;46.934;8.276;2023-11-19T04:47:37;96681.75;;;6.47;100.00
57232;BME280;43488;46.934;8.276;2023-11-19T04:50:05;96687.78;;;6.48;100.00
57232;BME280;43488;46.934;8.276;2023-11-19T04:52:32;96680.13;;;6.46;100.00
57232;BME280;43488;46.934;8.276;2023-11-19T04:54:59;96674.56;;;6.49;100.00
57232;BME280;43488;46.934;8.276;2023-11-19T04:57:27;96676.19;;;6.50;100.00
57232;BME280;43488;46.934;8.276;2023-11-19T04:59:54;96663.91;;;6.51;100.00
57232;BME280;43488;46.934;8.276;2023-11-19T05:02:21;96673.00;;;6.55;100.00
57232;BME280;43488;46.934;8.276;2023-11-19T05:04:49;96676.09;;;6.59;100.00
57232;BME280;43488;46.934;8.276;2023-11-19T05:07:16;96691.44;;;6.62;100.00
57232;BME280;43488;46.934;8.276;2023-11-19T05:09:43;96718.41;;;6.62;100.00
57232;BME280;43488;46.934;8.276;2023-11-19T05:12:11;96726.63;;;6.59;100.00
57232;BME280;43488;46.934;8.276;2023-11-19T05:14:39;96730.84;;;6.60;100.00
57232;BME280;43488;46.934;8.276;2023-11-19T05:17:06;96726.63;;;6.59;100.00
57232;BME280;43488;46.934;8.276;2023-11-19T05:19:35;96734.28;;;6.61;100.00
57232;BME280;43488;46.934;8.276;2023-11-19T05:22:02;96730.13;;;6.66;100.00
57232;BME280;43488;46.934;8.276;2023-11-19T05:24:31;96726.81;;;6.72;100.00
57232;BME280;43488;46.934;8.276;2023-11-19T05:26:59;96733.59;;;6.81;100.00
57232;BME280;43488;46.934;8.276;2023-11-19T05:29:26;96739.13;;;6.87;100.00
57232;BME280;43488;46.934;8.276;2023-11-19T05:31:54;96732.53;;;6.91;100.00
57232;BME280;43488;46.934;8.276;2023-11-19T05:34:22;96741.81;;;6.93;100.00
57232;BME280;43488;46.934;8.276;2023-11-19T05:36:49;96740.66;;;6.96;100.00
57232;BME280;43488;46.934;8.276;2023-11-19T05:39:17;96752.75;;;6.97;100.00
57232;BME280;43488;46.934;8.276;2023-11-19T05:41:47;96741.31;;;6.98;100.00
57232;BME280;43488;46.934;8.276;2023-11-19T05:44:15;96737.69;;;6.99;100.00
57232;BME280;43488;46.934;8.276;2023-11-19T05:46:44;96753.84;;;7.02;100.00
57232;BME280;43488;46.934;8.276;2023-11-19T05:49:11;96767.75;;;7.03;100.00
57232;BME280;43488;46.934;8.276;2023-11-19T05:51:40;96777.06;;;7.05;100.00
57232;BME280;43488;46.934;8.276;2023-11-19T05:54:09;96767.22;;;7.07;100.00
57232;BME280;43488;46.934;8.276;2023-11-19T05:56:37;96755.75;;;7.08;100.00
57232;BME280;43488;46.934;8.276;2023-11-19T05:59:05;96770.47;;;7.09;100.00
57232;BME280;43488;46.934;8.276;2023-11-19T06:01:42;96778.13;;;7.11;100.00
57232;BME280;43488;46.934;8.276;2023-11-19T06:04:09;96782.03;;;7.15;100.00
57232;BME280;43488;46.934;8.276;2023-11-19T06:06:37;96776.44;;;7.18;100.00
57232;BME280;43488;46.934;8.276;2023-11-19T06:09:04;96772.63;;;7.21;100.00
57232;BME280;43488;46.934;8.276;2023-11-19T06:11:34;96769.84;;;7.22;100.00
57232;BME280;43488;46.934;8.276;2023-11-19T06:14:04;96766.25;;;7.23;100.00
57232;BME280;43488;46.934;8.276;2023-11-19T06:16:33;96757.41;;;7.24;100.00
57232;BME280;43488;46.934;8.276;2023-11-19T06:19:00;96763.25;;;7.26;100.00
57232;BME280;43488;46.934;8.276;2023-11-19T06:21:27;96764.25;;;7.25;100.00
57232;BME280;43488;46.934;8.276;2023-11-19T06:23:55;96754.41;;;7.27;100.00
57232;BME280;43488;46.934;8.276;2023-11-19T06:26:23;96745.56;;;7.28;100.00
57232;BME280;43488;46.934;8.276;2023-11-19T06:28:50;96747.81;;;7.31;100.00
57232;BME280;43488;46.934;8.276;2023-11-19T06:31:18;96753.88;;;7.32;100.00
57232;BME280;43488;46.934;8.276;2023-11-19T06:33:46;96753.88;;;7.32;100.00
57232;BME280;43488;46.934;8.276;2023-11-19T06:36:16;96773.84;;;7.33;100.00
57232;BME280;43488;46.934;8.276;2023-11-19T06:38:44;96771.03;;;7.34;100.00
57232;BME280;43488;46.934;8.276;2023-11-19T06:41:11;96783.13;;;7.35;100.00
57232;BME280;43488;46.934;8.276;2023-11-19T06:43:38;96778.69;;;7.36;100.00
57232;BME280;43488;46.934;8.276;2023-11-19T06:46:06;96778.34;;;7.39;100.00
57232;BME280;43488;46.934;8.276;2023-11-19T06:48:41;96779.81;;;7.41;100.00
57232;BME280;43488;46.934;8.276;2023-11-19T06:51:11;96780.44;;;7.44;100.00
57232;BME280;43488;46.934;8.276;2023-11-19T06:53:39;96784.84;;;7.43;100.00
57232;BME280;43488;46.934;8.276;2023-11-19T06:56:20;96793.53;;;7.44;100.00
57232;BME280;43488;46.934;8.276;2023-11-19T06:58:50;96788.28;;;7.44;100.00
57232;BME280;43488;46.934;8.276;2023-11-19T07:01:17;96792.53;;;7.45;100.00
57232;BME280;43488;46.934;8.276;2023-11-19T07:03:45;96782.06;;;7.45;100.00
57232;BME280;43488;46.934;8.276;2023-11-19T07:06:13;96785.47;;;7.45;100.00
57232;BME280;43488;46.934;8.276;2023-11-19T07:08:44;96783.66;;;7.46;100.00
57232;BME280;43488;46.934;8.276;2023-11-19T07:11:14;96778.44;;;7.46;100.00
57232;BME280;43488;46.934;8.276;2023-11-19T07:13:43;96779.06;;;7.48;100.00
57232;BME280;43488;46.934;8.276;2023-11-19T07:16:10;96779.88;;;7.48;100.00
57232;BME280;43488;46.934;8.276;2023-11-19T07:18:37;96774.63;;;7.48;100.00
57232;BME280;43488;46.934;8.276;2023-11-19T07:21:05;96791.16;;;7.49;100.00
57232;BME280;43488;46.934;8.276;2023-11-19T07:23:33;96788.53;;;7.49;100.00
57232;BME280;43488;46.934;8.276;2023-11-19T07:26:01;96775.44;;;7.49;100.00
57232;BME280;43488;46.934;8.276;2023-11-19T07:28:31;96795.59;;;7.48;100.00
57232;BME280;43488;46.934;8.276;2023-11-19T07:30:59;96780.88;;;7.47;100.00
57232;BME280;43488;46.934;8.276;2023-11-19T07:33:26;96775.44;;;7.49;100.00
57232;BME280;43488;46.934;8.276;2023-11-19T07:35:53;96787.72;;;7.48;100.00
57232;BME280;43488;46.934;8.276;2023-11-19T07:38:21;96771.81;;;7.50;100.00
57232;BME280;43488;46.934;8.276;2023-11-19T07:40:49;96778.72;;;7.51;100.00
57232;BME280;43488;46.934;8.276;2023-11-19T07:43:17;96770.84;;;7.51;100.00
57232;BME280;43488;46.934;8.276;2023-11-19T07:45:44;96776.72;;;7.53;100.00
57232;BME280;43488;46.934;8.276;2023-11-19T07:48:13;96766.88;;;7.55;100.00
57232;BME280;43488;46.934;8.276;2023-11-19T07:50:40;96751.34;;;7.53;100.00
57232;BME280;43488;46.934;8.276;2023-11-19T07:53:10;96762.25;;;7.57;100.00
57232;BME280;43488;46.934;8.276;2023-11-19T07:55:39;96761.91;;;7.60;100.00
57232;BME280;43488;46.934;8.276;2023-11-19T07:58:07;96761.53;;;7.63;100.00
57232;BME280;43488;46.934;8.276;2023-11-19T08:00:34;96759.53;;;7.65;100.00
57232;BME280;43488;46.934;8.276;2023-11-19T08:03:02;96757.53;;;7.67;100.00
57232;BME280;43488;46.934;8.276;2023-11-19T08:05:30;96742.47;;;7.69;100.00
57232;BME280;43488;46.934;8.276;2023-11-19T08:07:59;96743.09;;;7.71;100.00
57232;BME280;43488;46.934;8.276;2023-11-19T08:10:27;96736.66;;;7.74;100.00
57232;BME280;43488;46.934;8.276;2023-11-19T08:12:54;96747.59;;;7.77;100.00
57232;BME280;43488;46.934;8.276;2023-11-19T08:15:22;96750.47;;;7.82;100.00
57232;BME280;43488;46.934;8.276;2023-11-19T08:17:49;96744.03;;;7.85;100.00
57232;BME280;43488;46.934;8.276;2023-11-19T08:20:17;96748.13;;;7.87;100.00
57232;BME280;43488;46.934;8.276;2023-11-19T08:22:44;96766.09;;;7.90;100.00
57232;BME280;43488;46.934;8.276;2023-11-19T08:25:11;96744.75;;;7.93;100.00
57232;BME280;43488;46.934;8.276;2023-11-19T08:27:38;96752.28;;;7.96;100.00
57232;BME280;43488;46.934;8.276;2023-11-19T08:30:07;96763.00;;;8.02;100.00
57232;BME280;43488;46.934;8.276;2023-11-19T08:32:34;96759.84;;;8.06;100.00
57232;BME280;43488;46.934;8.276;2023-11-19T08:35:01;96748.97;;;8.09;100.00
57232;BME280;43488;46.934;8.276;2023-11-19T08:37:29;96761.53;;;8.14;100.00
57232;BME280;43488;46.934;8.276;2023-11-19T08:39:56;96770.84;;;8.16;100.00
57232;BME280;43488;46.934;8.276;2023-11-19T08:42:23;96764.41;;;8.19;100.00
57232;BME280;43488;46.934;8.276;2023-11-19T08:44:51;96766.47;;;8.23;100.00
57232;BME280;43488;46.934;8.276;2023-11-19T08:47:21;96757.63;;;8.24;100.00
57232;BME280;43488;46.934;8.276;2023-11-19T08:49:53;96749.34;;;8.27;100.00
57232;BME280;43488;46.934;8.276;2023-11-19T08:52:21;96745.53;;;8.30;100.00
57232;BME280;43488;46.934;8.276;2023-11-19T08:54:48;96751.44;;;8.32;100.00
57232;BME280;43488;46.934;8.276;2023-11-19T08:57:16;96759.94;;;8.34;100.00
57232;BME280;43488;46.934;8.276;2023-11-19T08:59:44;96758.56;;;8.38;100.00
57232;BME280;43488;46.934;8.276;2023-11-19T09:02:12;96753.94;;;8.40;100.00
57232;BME280;43488;46.934;8.276;2023-11-19T09:04:40;96767.72;;;8.42;100.00
57232;BME280;43488;46.934;8.276;2023-11-19T09:07:08;96757.84;;;8.44;100.00
57232;BME280;43488;46.934;8.276;2023-11-19T09:09:36;96758.25;;;8.48;100.00
57232;BME280;43488;46.934;8.276;2023-11-19T09:12:04;96769.03;;;8.53;100.00
57232;BME280;43488;46.934;8.276;2023-11-19T09:14:32;96772.06;;;8.57;100.00
57232;BME280;43488;46.934;8.276;2023-11-19T09:17:00;96758.59;;;8.60;100.00
57232;BME280;43488;46.934;8.276;2023-11-19T09:19:27;96771.53;;;8.61;100.00
57232;BME280;43488;46.934;8.276;2023-11-19T09:21:54;96774.38;;;8.66;100.00
57232;BME280;43488;46.934;8.276;2023-11-19T09:24:21;96774.44;;;8.73;100.00
57232;BME280;43488;46.934;8.276;2023-11-19T09:26:49;96787.81;;;8.78;100.00
57232;BME280;43488;46.934;8.276;2023-11-19T09:29:17;96796.75;;;8.83;100.00
57232;BME280;43488;46.934;8.276;2023-11-19T09:31:44;96796.19;;;8.88;100.00
57232;BME280;43488;46.934;8.276;2023-11-19T09:34:11;96787.31;;;8.89;100.00
57232;BME280;43488;46.934;8.276;2023-11-19T09:36:39;96770.97;;;8.94;100.00
57232;BME280;43488;46.934;8.276;2023-11-19T09:39:11;96769.97;;;8.95;100.00
57232;BME280;43488;46.934;8.276;2023-11-19T09:41:40;96780.72;;;9.00;100.00
57232;BME280;43488;46.934;8.276;2023-11-19T09:44:09;96783.00;;;9.09;100.00
57232;BME280;43488;46.934;8.276;2023-11-19T09:46:37;96792.13;;;9.13;100.00
57232;BME280;43488;46.934;8.276;2023-11-19T09:49:05;96788.53;;;9.15;100.00
57232;BME280;43488;46.934;8.276;2023-11-19T09:51:36;96784.50;;;9.19;100.00
57232;BME280;43488;46.934;8.276;2023-11-19T09:54:03;96790.00;;;9.24;100.00
57232;BME280;43488;46.934;8.276;2023-11-19T09:56:31;96792.22;;;9.27;100.00
57232;BME280;43488;46.934;8.276;2023-11-19T09:58:59;96782.94;;;9.31;100.00
57232;BME280;43488;46.934;8.276;2023-11-19T10:01:27;96774.69;;;9.34;100.00
57232;BME280;43488;46.934;8.276;2023-11-19T10:03:55;96773.69;;;9.35;100.00
57232;BME280;43488;46.934;8.276;2023-11-19T10:06:23;96763.78;;;9.37;100.00
57232;BME280;43488;46.934;8.276;2023-11-19T10:08:51;96776.13;;;9.36;100.00
57232;BME280;43488;46.934;8.276;2023-11-19T10:11:19;96765.41;;;9.38;100.00
57232;BME280;43488;46.934;8.276;2023-11-19T10:13:46;96751.50;;;9.44;100.00
57232;BME280;43488;46.934;8.276;2023-11-19T10:16:15;96750.72;;;9.50;100.00
57232;BME280;43488;46.934;8.276;2023-11-19T10:18:49;96745.91;;;9.54;100.00
57232;BME280;43488;46.934;8.276;2023-11-19T10:21:20;96743.69;;;9.57;100.00
57232;BME280;43488;46.934;8.276;2023-11-19T10:23:56;96744.53;;;9.64;100.00
57232;BME280;43488;46.934;8.276;2023-11-19T10:26:31;96754.03;;;9.65;100.00
57232;BME280;43488;46.934;8.276;2023-11-19T10:29:01;96748.38;;;9.68;100.00
57232;BME280;43488;46.934;8.276;2023-11-19T10:31:29;96746.75;;;9.67;100.00
57232;BME280;43488;46.934;8.276;2023-11-19T10:33:57;96750.03;;;9.69;100.00
57232;BME280;43488;46.934;8.276;2023-11-19T10:36:38;96757.72;;;9.71;100.00
57232;BME280;43488;46.934;8.276;2023-11-19T10:39:07;96759.53;;;9.71;100.00
57232;BME280;43488;46.934;8.276;2023-11-19T10:41:36;96756.09;;;9.70;100.00
57232;BME280;43488;46.934;8.276;2023-11-19T10:44:03;96766.19;;;9.66;100.00
57232;BME280;43488;46.934;8.276;2023-11-19T10:46:41;96755.66;;;9.66;100.00
57232;BME280;43488;46.934;8.276;2023-11-19T10:49:10;96759.91;;;9.67;100.00
57232;BME280;43488;46.934;8.276;2023-11-19T10:51:45;96760.53;;;9.69;100.00
57232;BME280;43488;46.934;8.276;2023-11-19T10:54:16;96759.75;;;9.76;100.00
57232;BME280;43488;46.934;8.276;2023-11-19T10:56:55;96758.56;;;9.85;100.00
57232;BME280;43488;46.934;8.276;2023-11-19T10:59:30;96768.13;;;9.92;100.00
57232;BME280;43488;46.934;8.276;2023-11-19T11:02:03;96765.88;;;9.96;100.00
57232;BME280;43488;46.934;8.276;2023-11-19T11:04:40;96751.97;;;10.02;100.00
57232;BME280;43488;46.934;8.276;2023-11-19T11:07:10;96757.03;;;10.04;100.00
57232;BME280;43488;46.934;8.276;2023-11-19T11:09:37;96751.59;;;10.12;100.00
57232;BME280;43488;46.934;8.276;2023-11-19T11:12:06;96744.53;;;10.19;100.00
57232;BME280;43488;46.934;8.276;2023-11-19T11:14:34;96738.69;;;10.23;100.00
57232;BME280;43488;46.934;8.276;2023-11-19T11:17:05;96728.78;;;10.25;100.00
57232;BME280;43488;46.934;8.276;2023-11-19T11:19:35;96742.97;;;10.31;100.00
57232;BME280;43488;46.934;8.276;2023-11-19T11:22:04;96740.13;;;10.33;100.00
57232;BME280;43488;46.934;8.276;2023-11-19T11:25:19;96738.53;;;10.38;100.00
57232;BME280;43488;46.934;8.276;2023-11-19T11:28:03;96733.47;;;10.43;100.00
57232;BME280;43488;46.934;8.276;2023-11-19T11:30:53;96735.91;;;10.45;100.00
57232;BME280;43488;46.934;8.276;2023-11-19T11:33:53;96716.50;;;10.52;100.00
57232;BME280;43488;46.934;8.276;2023-11-19T11:36:26;96725.59;;;10.63;100.00
57232;BME280;43488;46.934;8.276;2023-11-19T11:38:54;96716.66;;;10.77;100.00
57232;BME280;43488;46.934;8.276;2023-11-19T11:41:25;96712.44;;;10.90;100.00
57232;BME280;43488;46.934;8.276;2023-11-19T11:43:56;96714.88;;;10.98;100.00
57232;BME280;43488;46.934;8.276;2023-11-19T11:49:05;96717.28;;;11.84;100.00
57232;BME280;43488;46.934;8.276;2023-11-19T11:57:13;96719.31;;;11.68;100.00
57232;BME280;43488;46.934;8.276;2023-11-19T11:59:45;96709.34;;;11.77;100.00
57232;BME280;43488;46.934;8.276;2023-11-19T12:02:16;96707.31;;;12.24;100.00
57232;BME280;43488;46.934;8.276;2023-11-19T12:04:52;96707.88;;;12.01;100.00
57232;BME280;43488;46.934;8.276;2023-11-19T12:07:22;96702.63;;;11.88;100.00
57232;BME280;43488;46.934;8.276;2023-11-19T12:10:06;96701.44;;;11.84;100.00
57232;BME280;43488;46.934;8.276;2023-11-19T12:12:40;96690.31;;;11.75;100.00
57232;BME280;43488;46.934;8.276;2023-11-19T12:15:09;96697.84;;;11.72;100.00
57232;BME280;43488;46.934;8.276;2023-11-19T12:17:46;96696.44;;;11.62;100.00
57232;BME280;43488;46.934;8.276;2023-11-19T12:20:19;96689.16;;;11.58;100.00
57232;BME280;43488;46.934;8.276;2023-11-19T12:22:48;96686.47;;;11.71;100.00
57232;BME280;43488;46.934;8.276;2023-11-19T12:25:17;96686.06;;;12.12;100.00
57232;BME280;43488;46.934;8.276;2023-11-19T12:27:50;96674.13;;;12.91;100.00
57232;BME280;43488;46.934;8.276;2023-11-19T12:30:24;96662.31;;;13.12;100.00
57232;BME280;43488;46.934;8.276;2023-11-19T12:32:53;96665.09;;;14.32;100.00
57232;BME280;43488;46.934;8.276;2023-11-19T12:35:20;96663.66;;;14.48;100.00
57232;BME280;43488;46.934;8.276;2023-11-19T12:37:52;96671.66;;;14.30;100.00
57232;BME280;43488;46.934;8.276;2023-11-19T12:40:24;96675.44;;;13.92;100.00
57232;BME280;43488;46.934;8.276;2023-11-19T12:42:53;96667.56;;;13.55;100.00
57232;BME280;43488;46.934;8.276;2023-11-19T12:45:22;96672.66;;;13.14;100.00
57232;BME280;43488;46.934;8.276;2023-11-19T12:48:07;96669.41;;;12.93;100.00
57232;BME280;43488;46.934;8.276;2023-11-19T12:51:01;96670.00;;;12.70;100.00
57232;BME280;43488;46.934;8.276;2023-11-19T12:53:28;96672.66;;;12.45;100.00
57232;BME280;43488;46.934;8.276;2023-11-19T12:55:56;96677.88;;;12.27;100.00
57232;BME280;43488;46.934;8.276;2023-11-19T12:58:36;96662.06;;;12.20;100.00
57232;BME280;43488;46.934;8.276;2023-11-19T13:01:08;96673.09;;;12.11;100.00
57232;BME280;43488;46.934;8.276;2023-11-19T13:03:39;96681.94;;;11.91;100.00
57232;BME280;43488;46.934;8.276;2023-11-19T13:06:11;96678.28;;;11.79;100.00
57232;BME280;43488;46.934;8.276;2023-11-19T13:11:35;96663.94;;;11.68;100.00
57232;BME280;43488;46.934;8.276;2023-11-19T13:14:06;96674.34;;;11.63;100.00
57232;BME280;43488;46.934;8.276;2023-11-19T13:16:37;96672.75;;;11.56;100.00
57232;BME280;43488;46.934;8.276;2023-11-19T13:19:05;96679.25;;;11.53;100.00
57232;BME280;43488;46.934;8.276;2023-11-19T13:21:32;96676.41;;;11.48;100.00